Nagano, Japan
Current Conditions -  °F | °C
As of 7:00 AM on Thursday 23 Oct 2014 (Local Time) from RJNT Reporting Station
Broken Clouds Broken Clouds  
Wind Chill: 14°   Ceiling: 14000
Heat Index: 14°   Visibility: 6mi
Dew Point:   Wind: 7mph
Humidity: 67%   Direction: 20°NNE
Pressure: 30.03"   Gusts: NA
Location:  36.65°N, 138.18°E
Report Text: RJNT 222200Z 02006KT 350V060 9999 FEW020 SCT050 BKN140 14/08 Q1017
Loading
Personal Weather Stations






























Interactive Weather Map
Tropical Storm Tracking
New forecast layout! Learn more

10-Day Weather Forecast

Advertisements
Track Severe Weather on mobile